Crystal Ace — V7YB2 — position and weather

sailwx.info

Track history (hours):
 
Tides and Currents Weather Stations Pressure Air Temp Water Temp Dewpoint Dewpoint Depression Visibility Wind Speed Wind Dir Waves Ship Positions

Crystal Ace

Last reported at 2018-Jul-26 23:30 UTC. Time now 2018-Aug-16 08:45 UTC.
Position N 23°09' W 086°18'.
Warning: this ship's position is 20 days out of date.

Length 200 m; draft 8.3 m.

Type: Cargo ship. MMSI: 538004619.

Date/timePositionNaut miles runAvg speedWind from/ knotsBaromVisibWave heightAir tempDewpointWater temp
2018-Jul-26 23:30N 23°09' W 086°18'815.9
2018-Jul-26 22:59N 23°10' W 086°09'38515.9
2018-Jul-25 22:45N 25°19' W 079°31'917.3
2018-Jul-25 22:14N 25°28' W 079°30'417.0
2018-Jul-25 22:00N 25°32' W 079°30'816.8
2018-Jul-25 21:30N 25°40' W 079°29'817.0
2018-Jul-25 21:00N 25°49' W 079°29'816.6
2018-Jul-25 20:30N 25°57' W 079°28'816.7
2018-Jul-25 20:00N 26°06' W 079°28'816.8
2018-Jul-25 19:30N 26°14' W 079°27'816.8
2018-Jul-25 19:00N 26°22' W 079°26'916.8
2018-Jul-25 18:30N 26°31' W 079°26'298 9.0
2018-Jul-24 09:17N 31°08' W 081°32'1 2.3
2018-Jul-24 08:43N 31°08' W 081°31'115 7.3
2018-Jul-23 17:00N 31°58' W 079°30'38310.0
2018-Jul-22 02:42N 37°45' W 076°11'417.4
2018-Jul-22 02:29N 37°49' W 076°11'816.4
2018-Jul-22 01:59N 37°57' W 076°10'816.6
2018-Jul-22 01:30N 38°05' W 076°13'3917.2
2018-Jul-21 23:13N 38°43' W 076°26'416.8
2018-Jul-21 23:00N 38°46' W 076°26'917.5
2018-Jul-21 22:30N 38°55' W 076°24'815.3
2018-Jul-21 22:00N 39°02' W 076°23'714.0
2018-Jul-21 21:30N 39°09' W 076°25'611.1
2018-Jul-21 21:00N 39°12' W 076°31'2 4.6
2018-Jul-21 20:30N 39°14' W 076°32'0 0.0
2018-Jul-21 20:00N 39°14' W 076°32'0 0.0
2018-Jul-21 19:30N 39°14' W 076°32'0 0.0
2018-Jul-21 19:00N 39°14' W 076°32'0 0.0
2018-Jul-21 18:30N 39°14' W 076°32'0 0.0
2018-Jul-21 18:00N 39°14' W 076°32'0 0.0
2018-Jul-21 17:30N 39°14' W 076°32'0 0.0
2018-Jul-21 17:00N 39°14' W 076°32'0 0.0
2018-Jul-21 16:30N 39°14' W 076°32'0 0.0
2018-Jul-21 16:00N 39°14' W 076°32'0 0.0
2018-Jul-21 15:30N 39°14' W 076°32'0 0.0
2018-Jul-21 15:00N 39°14' W 076°32'0 0.0
2018-Jul-21 14:30N 39°14' W 076°32'0 0.0
2018-Jul-21 14:00N 39°14' W 076°32'0 0.0
2018-Jul-21 13:30N 39°14' W 076°32'0 0.0
2018-Jul-21 13:00N 39°14' W 076°32'0 0.0
2018-Jul-21 12:30N 39°14' W 076°32'0 0.0
2018-Jul-21 12:00N 39°14' W 076°32'0 0.0
2018-Jul-21 11:30N 39°14' W 076°32'0 0.0
2018-Jul-21 11:00N 39°14' W 076°32'0 0.0
2018-Jul-21 10:30N 39°14' W 076°32'0 0.5
2018-Jul-21 10:00N 39°14' W 076°32'1 2.8
2018-Jul-21 09:30N 39°14' W 076°34'0 0.0
2018-Jul-21 09:00N 39°14' W 076°34'0 0.0
2018-Jul-21 08:30N 39°14' W 076°34'0 0.0
2018-Jul-21 08:00N 39°14' W 076°34'0 0.0
2018-Jul-21 07:30N 39°14' W 076°34'0 0.0
2018-Jul-21 07:00N 39°14' W 076°34'0 0.0
2018-Jul-21 06:30N 39°14' W 076°34'0 0.0
2018-Jul-21 06:00N 39°14' W 076°34'0 0.0
2018-Jul-21 05:30N 39°14' W 076°34'0 0.0
2018-Jul-21 05:00N 39°14' W 076°34'0 0.0
2018-Jul-21 04:27N 39°14' W 076°34'0 0.0
2018-Jul-21 04:00N 39°14' W 076°34'0 0.0
2018-Jul-21 03:30N 39°14' W 076°34'0 0.0
2018-Jul-21 03:00N 39°14' W 076°34'0 0.0
2018-Jul-21 02:30N 39°14' W 076°34'0 0.0
2018-Jul-21 02:00N 39°14' W 076°34'0 0.0
2018-Jul-21 01:30N 39°14' W 076°34'0 0.0
2018-Jul-21 01:00N 39°14' W 076°34'0 0.0
2018-Jul-21 00:30N 39°14' W 076°34'0 0.0
2018-Jul-21 00:00N 39°14' W 076°34'0 0.0
2018-Jul-20 23:30N 39°14' W 076°34'0 0.0
2018-Jul-20 23:00N 39°14' W 076°34'0 0.0
2018-Jul-20 22:30N 39°14' W 076°34'0 0.0
2018-Jul-20 22:00N 39°14' W 076°34'0 0.0
2018-Jul-20 21:30N 39°14' W 076°34'0 0.0
2018-Jul-20 21:00N 39°14' W 076°34'0 0.0
2018-Jul-20 20:30N 39°14' W 076°34'0 0.0
2018-Jul-20 20:00N 39°14' W 076°34'0 0.0
2018-Jul-20 19:30N 39°14' W 076°34'0 0.0
2018-Jul-20 19:00N 39°14' W 076°34'0 0.0
2018-Jul-20 18:30N 39°14' W 076°34'0 0.0
2018-Jul-20 18:00N 39°14' W 076°34'0 0.0
2018-Jul-20 17:30N 39°14' W 076°34'0 0.0
2018-Jul-20 17:00N 39°14' W 076°34'0 0.0
2018-Jul-20 16:30N 39°14' W 076°34'0 0.0
2018-Jul-20 16:00N 39°14' W 076°34'0 0.0
2018-Jul-20 15:30N 39°14' W 076°34'0 0.0
2018-Jul-20 15:00N 39°14' W 076°34'0 0.0
2018-Jul-20 14:30N 39°14' W 076°34'0 0.0
2018-Jul-20 14:00N 39°14' W 076°34'0 0.0
2018-Jul-20 13:30N 39°14' W 076°34'0 0.0
2018-Jul-20 13:00N 39°14' W 076°34'0 0.0
2018-Jul-20 12:30N 39°14' W 076°34'0 0.0
2018-Jul-20 12:00N 39°14' W 076°34'0 0.0
2018-Jul-20 11:30N 39°14' W 076°34'0 0.0
2018-Jul-20 11:00N 39°14' W 076°34'0 0.0
2018-Jul-20 10:30N 39°14' W 076°34'0 0.0
2018-Jul-20 10:00N 39°14' W 076°34'0 0.0
2018-Jul-20 09:30N 39°14' W 076°34'0 0.0
2018-Jul-20 09:00N 39°14' W 076°34'0 0.0
2018-Jul-20 08:30N 39°14' W 076°34'0 0.0
2018-Jul-20 08:00N 39°14' W 076°34'0 0.0
2018-Jul-20 07:30N 39°14' W 076°34'0 0.0
2018-Jul-20 07:00N 39°14' W 076°34'0 0.0
2018-Jul-20 06:30N 39°14' W 076°34'0 0.0
2018-Jul-20 06:00N 39°14' W 076°34'0 0.0
2018-Jul-20 05:30N 39°14' W 076°34'0 0.0
2018-Jul-20 05:00N 39°14' W 076°34'0 0.0
2018-Jul-20 04:30N 39°14' W 076°34'0 0.0
2018-Jul-20 04:00N 39°14' W 076°34'0 0.0
2018-Jul-20 03:30N 39°14' W 076°34'0 0.0
2018-Jul-20 03:00N 39°14' W 076°34'0 0.0
2018-Jul-20 02:30N 39°14' W 076°34'0 0.0
2018-Jul-20 02:00N 39°14' W 076°34'0 0.0
2018-Jul-20 01:30N 39°14' W 076°34'0 0.0
2018-Jul-20 01:00N 39°14' W 076°34'0 0.0
2018-Jul-20 00:30N 39°14' W 076°34'0 0.0
2018-Jul-20 00:00N 39°14' W 076°34'0 0.0
2018-Jul-19 23:30N 39°14' W 076°34'0 0.0
2018-Jul-19 23:00N 39°14' W 076°34'0 0.0
2018-Jul-19 22:30N 39°14' W 076°34'0 0.0
2018-Jul-19 22:00N 39°14' W 076°34'0 0.0
2018-Jul-19 21:30N 39°14' W 076°34'0 0.0
2018-Jul-19 21:00N 39°14' W 076°34'0 0.0
2018-Jul-19 20:30N 39°14' W 076°34'0 0.0
2018-Jul-19 20:00N 39°14' W 076°34'0 0.0
2018-Jul-19 19:30N 39°14' W 076°34'0 0.0
2018-Jul-19 19:00N 39°14' W 076°34'0 0.0
2018-Jul-19 18:30N 39°14' W 076°34'0 0.0
2018-Jul-19 18:00N 39°14' W 076°34'0 0.0
2018-Jul-19 17:30N 39°14' W 076°34'0 0.0
2018-Jul-19 17:00N 39°14' W 076°34'0 0.0
2018-Jul-19 16:30N 39°14' W 076°34'0 0.0
2018-Jul-19 16:00N 39°14' W 076°34'0 0.0
2018-Jul-19 15:30N 39°14' W 076°34'0 0.0
2018-Jul-19 15:00N 39°14' W 076°34'0 0.0
2018-Jul-19 14:30N 39°14' W 076°34'0 0.0
2018-Jul-19 13:30N 39°14' W 076°34'0 0.0
2018-Jul-19 13:00N 39°14' W 076°34'0 0.0
2018-Jul-19 12:30N 39°14' W 076°34'0 0.0
2018-Jul-19 12:00N 39°14' W 076°34'0 0.0
2018-Jul-19 11:30N 39°14' W 076°34'0 0.0
2018-Jul-19 11:00N 39°14' W 076°34'0 0.0
2018-Jul-19 10:30N 39°14' W 076°34'0 0.0
2018-Jul-19 10:00N 39°14' W 076°34'0 0.0
2018-Jul-19 09:30N 39°14' W 076°34'0 0.0
2018-Jul-19 09:00N 39°14' W 076°34'0 0.0
2018-Jul-19 08:30N 39°14' W 076°34'0 0.0
2018-Jul-19 08:00N 39°14' W 076°34'0 0.0
2018-Jul-19 07:30N 39°14' W 076°34'0 0.0
2018-Jul-19 07:00N 39°14' W 076°34'0 0.0
2018-Jul-19 06:30N 39°14' W 076°34'0 0.0
2018-Jul-19 05:54N 39°14' W 076°34'0 0.0
2018-Jul-19 05:30N 39°14' W 076°34'0 0.0
2018-Jul-19 05:00N 39°14' W 076°34'0 0.0
2018-Jul-19 04:30N 39°14' W 076°34'0 0.0
2018-Jul-19 04:00N 39°14' W 076°34'0 0.4
2018-Jul-19 03:30N 39°15' W 076°34'1 1.9
2018-Jul-19 03:00N 39°14' W 076°33'4 7.6
2018-Jul-19 02:30N 39°12' W 076°29'612.1
2018-Jul-19 02:00N 39°07' W 076°24'714.6
2018-Jul-19 01:30N 38°60' W 076°23'816.8
2018-Jul-19 01:00N 38°51' W 076°24'917.4
2018-Jul-19 00:30N 38°43' W 076°26'3117.0
2018-Jul-18 22:40N 38°13' W 076°15'417.2
2018-Jul-18 22:25N 38°08' W 076°13'817.6
2018-Jul-18 21:56N 38°00' W 076°12'917.0
2018-Jul-18 21:24N 37°51' W 076°09'917.6
2018-Jul-18 20:53N 37°42' W 076°11'  
Track history (hours):
 
Tides and Currents Weather Stations Pressure Air Temp Water Temp Dewpoint Dewpoint Depression Visibility Wind Speed Wind Dir Waves Ship Positions

Crystal Ace

Last reported at 2018-Jul-26 23:30 UTC. Time now 2018-Aug-16 08:45 UTC.
Position N 23°09' W 086°18'.
Warning: this ship's position is 20 days out of date.

Length 200 m; draft 8.3 m.

Type: Cargo ship. MMSI: 538004619.

Date/timePositionNaut miles runAvg speedWind from/ knotsBaromVisibWave heightAir tempDewpointWater temp
2018-Jul-26 23:30N 23°09' W 086°18'815.9
2018-Jul-26 22:59N 23°10' W 086°09'38515.9
2018-Jul-25 22:45N 25°19' W 079°31'917.3
2018-Jul-25 22:14N 25°28' W 079°30'417.0
2018-Jul-25 22:00N 25°32' W 079°30'816.8
2018-Jul-25 21:30N 25°40' W 079°29'817.0
2018-Jul-25 21:00N 25°49' W 079°29'816.6
2018-Jul-25 20:30N 25°57' W 079°28'816.7
2018-Jul-25 20:00N 26°06' W 079°28'816.8
2018-Jul-25 19:30N 26°14' W 079°27'816.8
2018-Jul-25 19:00N 26°22' W 079°26'916.8
2018-Jul-25 18:30N 26°31' W 079°26'298 9.0
2018-Jul-24 09:17N 31°08' W 081°32'1 2.3
2018-Jul-24 08:43N 31°08' W 081°31'115 7.3
2018-Jul-23 17:00N 31°58' W 079°30'38310.0
2018-Jul-22 02:42N 37°45' W 076°11'417.4
2018-Jul-22 02:29N 37°49' W 076°11'816.4
2018-Jul-22 01:59N 37°57' W 076°10'816.6
2018-Jul-22 01:30N 38°05' W 076°13'3917.2
2018-Jul-21 23:13N 38°43' W 076°26'416.8
2018-Jul-21 23:00N 38°46' W 076°26'917.5
2018-Jul-21 22:30N 38°55' W 076°24'815.3
2018-Jul-21 22:00N 39°02' W 076°23'714.0
2018-Jul-21 21:30N 39°09' W 076°25'611.1
2018-Jul-21 21:00N 39°12' W 076°31'2 4.6
2018-Jul-21 20:30N 39°14' W 076°32'0 0.0
2018-Jul-21 20:00N 39°14' W 076°32'0 0.0
2018-Jul-21 19:30N 39°14' W 076°32'0 0.0
2018-Jul-21 19:00N 39°14' W 076°32'0 0.0
2018-Jul-21 18:30N 39°14' W 076°32'0 0.0
2018-Jul-21 18:00N 39°14' W 076°32'0 0.0
2018-Jul-21 17:30N 39°14' W 076°32'0 0.0
2018-Jul-21 17:00N 39°14' W 076°32'0 0.0
2018-Jul-21 16:30N 39°14' W 076°32'0 0.0
2018-Jul-21 16:00N 39°14' W 076°32'0 0.0
2018-Jul-21 15:30N 39°14' W 076°32'0 0.0
2018-Jul-21 15:00N 39°14' W 076°32'0 0.0
2018-Jul-21 14:30N 39°14' W 076°32'0 0.0
2018-Jul-21 14:00N 39°14' W 076°32'0 0.0
2018-Jul-21 13:30N 39°14' W 076°32'0 0.0
2018-Jul-21 13:00N 39°14' W 076°32'0 0.0
2018-Jul-21 12:30N 39°14' W 076°32'0 0.0
2018-Jul-21 12:00N 39°14' W 076°32'0 0.0
2018-Jul-21 11:30N 39°14' W 076°32'0 0.0
2018-Jul-21 11:00N 39°14' W 076°32'0 0.0
2018-Jul-21 10:30N 39°14' W 076°32'0 0.5
2018-Jul-21 10:00N 39°14' W 076°32'1 2.8
2018-Jul-21 09:30N 39°14' W 076°34'0 0.0
2018-Jul-21 09:00N 39°14' W 076°34'0 0.0
2018-Jul-21 08:30N 39°14' W 076°34'0 0.0
2018-Jul-21 08:00N 39°14' W 076°34'0 0.0
2018-Jul-21 07:30N 39°14' W 076°34'0 0.0
2018-Jul-21 07:00N 39°14' W 076°34'0 0.0
2018-Jul-21 06:30N 39°14' W 076°34'0 0.0
2018-Jul-21 06:00N 39°14' W 076°34'0 0.0
2018-Jul-21 05:30N 39°14' W 076°34'0 0.0
2018-Jul-21 05:00N 39°14' W 076°34'0 0.0
2018-Jul-21 04:27N 39°14' W 076°34'0 0.0
2018-Jul-21 04:00N 39°14' W 076°34'0 0.0
2018-Jul-21 03:30N 39°14' W 076°34'0 0.0
2018-Jul-21 03:00N 39°14' W 076°34'0 0.0
2018-Jul-21 02:30N 39°14' W 076°34'0 0.0
2018-Jul-21 02:00N 39°14' W 076°34'0 0.0
2018-Jul-21 01:30N 39°14' W 076°34'0 0.0
2018-Jul-21 01:00N 39°14' W 076°34'0 0.0
2018-Jul-21 00:30N 39°14' W 076°34'0 0.0
2018-Jul-21 00:00N 39°14' W 076°34'0 0.0
2018-Jul-20 23:30N 39°14' W 076°34'0 0.0
2018-Jul-20 23:00N 39°14' W 076°34'0 0.0
2018-Jul-20 22:30N 39°14' W 076°34'0 0.0
2018-Jul-20 22:00N 39°14' W 076°34'0 0.0
2018-Jul-20 21:30N 39°14' W 076°34'0 0.0
2018-Jul-20 21:00N 39°14' W 076°34'0 0.0
2018-Jul-20 20:30N 39°14' W 076°34'0 0.0
2018-Jul-20 20:00N 39°14' W 076°34'0 0.0
2018-Jul-20 19:30N 39°14' W 076°34'0 0.0
2018-Jul-20 19:00N 39°14' W 076°34'0 0.0
2018-Jul-20 18:30N 39°14' W 076°34'0 0.0
2018-Jul-20 18:00N 39°14' W 076°34'0 0.0
2018-Jul-20 17:30N 39°14' W 076°34'0 0.0
2018-Jul-20 17:00N 39°14' W 076°34'0 0.0
2018-Jul-20 16:30N 39°14' W 076°34'0 0.0
2018-Jul-20 16:00N 39°14' W 076°34'0 0.0
2018-Jul-20 15:30N 39°14' W 076°34'0 0.0
2018-Jul-20 15:00N 39°14' W 076°34'0 0.0
2018-Jul-20 14:30N 39°14' W 076°34'0 0.0
2018-Jul-20 14:00N 39°14' W 076°34'0 0.0
2018-Jul-20 13:30N 39°14' W 076°34'0 0.0
2018-Jul-20 13:00N 39°14' W 076°34'0 0.0
2018-Jul-20 12:30N 39°14' W 076°34'0 0.0
2018-Jul-20 12:00N 39°14' W 076°34'0 0.0
2018-Jul-20 11:30N 39°14' W 076°34'0 0.0
2018-Jul-20 11:00N 39°14' W 076°34'0 0.0
2018-Jul-20 10:30N 39°14' W 076°34'0 0.0
2018-Jul-20 10:00N 39°14' W 076°34'0 0.0
2018-Jul-20 09:30N 39°14' W 076°34'0 0.0
2018-Jul-20 09:00N 39°14' W 076°34'0 0.0
2018-Jul-20 08:30N 39°14' W 076°34'0 0.0
2018-Jul-20 08:00N 39°14' W 076°34'0 0.0
2018-Jul-20 07:30N 39°14' W 076°34'0 0.0
2018-Jul-20 07:00N 39°14' W 076°34'0 0.0
2018-Jul-20 06:30N 39°14' W 076°34'0 0.0
2018-Jul-20 06:00N 39°14' W 076°34'0 0.0
2018-Jul-20 05:30N 39°14' W 076°34'0 0.0
2018-Jul-20 05:00N 39°14' W 076°34'0 0.0
2018-Jul-20 04:30N 39°14' W 076°34'0 0.0
2018-Jul-20 04:00N 39°14' W 076°34'0 0.0
2018-Jul-20 03:30N 39°14' W 076°34'0 0.0
2018-Jul-20 03:00N 39°14' W 076°34'0 0.0
2018-Jul-20 02:30N 39°14' W 076°34'0 0.0
2018-Jul-20 02:00N 39°14' W 076°34'0 0.0
2018-Jul-20 01:30N 39°14' W 076°34'0 0.0
2018-Jul-20 01:00N 39°14' W 076°34'0 0.0
2018-Jul-20 00:30N 39°14' W 076°34'0 0.0
2018-Jul-20 00:00N 39°14' W 076°34'0 0.0
2018-Jul-19 23:30N 39°14' W 076°34'0 0.0
2018-Jul-19 23:00N 39°14' W 076°34'0 0.0
2018-Jul-19 22:30N 39°14' W 076°34'0 0.0
2018-Jul-19 22:00N 39°14' W 076°34'0 0.0
2018-Jul-19 21:30N 39°14' W 076°34'0 0.0
2018-Jul-19 21:00N 39°14' W 076°34'0 0.0
2018-Jul-19 20:30N 39°14' W 076°34'0 0.0
2018-Jul-19 20:00N 39°14' W 076°34'0 0.0
2018-Jul-19 19:30N 39°14' W 076°34'0 0.0
2018-Jul-19 19:00N 39°14' W 076°34'0 0.0
2018-Jul-19 18:30N 39°14' W 076°34'0 0.0
2018-Jul-19 18:00N 39°14' W 076°34'0 0.0
2018-Jul-19 17:30N 39°14' W 076°34'0 0.0
2018-Jul-19 17:00N 39°14' W 076°34'0 0.0
2018-Jul-19 16:30N 39°14' W 076°34'0 0.0
2018-Jul-19 16:00N 39°14' W 076°34'0 0.0
2018-Jul-19 15:30N 39°14' W 076°34'0 0.0
2018-Jul-19 15:00N 39°14' W 076°34'0 0.0
2018-Jul-19 14:30N 39°14' W 076°34'0 0.0
2018-Jul-19 13:30N 39°14' W 076°34'0 0.0
2018-Jul-19 13:00N 39°14' W 076°34'0 0.0
2018-Jul-19 12:30N 39°14' W 076°34'0 0.0
2018-Jul-19 12:00N 39°14' W 076°34'0 0.0
2018-Jul-19 11:30N 39°14' W 076°34'0 0.0
2018-Jul-19 11:00N 39°14' W 076°34'0 0.0
2018-Jul-19 10:30N 39°14' W 076°34'0 0.0
2018-Jul-19 10:00N 39°14' W 076°34'0 0.0
2018-Jul-19 09:30N 39°14' W 076°34'0 0.0
2018-Jul-19 09:00N 39°14' W 076°34'0 0.0
2018-Jul-19 08:30N 39°14' W 076°34'0 0.0
2018-Jul-19 08:00N 39°14' W 076°34'0 0.0
2018-Jul-19 07:30N 39°14' W 076°34'0 0.0
2018-Jul-19 07:00N 39°14' W 076°34'0 0.0
2018-Jul-19 06:30N 39°14' W 076°34'0 0.0
2018-Jul-19 05:54N 39°14' W 076°34'0 0.0
2018-Jul-19 05:30N 39°14' W 076°34'0 0.0
2018-Jul-19 05:00N 39°14' W 076°34'0 0.0
2018-Jul-19 04:30N 39°14' W 076°34'0 0.0
2018-Jul-19 04:00N 39°14' W 076°34'0 0.4
2018-Jul-19 03:30N 39°15' W 076°34'1 1.9
2018-Jul-19 03:00N 39°14' W 076°33'4 7.6
2018-Jul-19 02:30N 39°12' W 076°29'612.1
2018-Jul-19 02:00N 39°07' W 076°24'714.6
2018-Jul-19 01:30N 38°60' W 076°23'816.8
2018-Jul-19 01:00N 38°51' W 076°24'917.4
2018-Jul-19 00:30N 38°43' W 076°26'3117.0
2018-Jul-18 22:40N 38°13' W 076°15'417.2
2018-Jul-18 22:25N 38°08' W 076°13'817.6
2018-Jul-18 21:56N 38°00' W 076°12'917.0
2018-Jul-18 21:24N 37°51' W 076°09'917.6
2018-Jul-18 20:53N 37°42' W 076°11'  

Dump ship's entire track history